createdAt,value
2019-03-18T00:01:46.433Z,5.12
2019-03-18T00:04:24.087Z,4.70
2019-03-18T00:07:01.733Z,5.33
2019-03-18T00:09:39.265Z,5.42
2019-03-18T00:12:16.889Z,5.67
2019-03-18T00:15:01.233Z,5.65
2019-03-18T00:17:34.035Z,5.67
2019-03-18T00:20:11.825Z,4.70
2019-03-18T00:22:49.353Z,5.35
2019-03-18T00:25:26.970Z,5.17
2019-03-18T00:28:04.519Z,4.92
2019-03-18T00:30:42.097Z,5.30
2019-03-18T00:33:19.635Z,5.30
2019-03-18T00:35:57.591Z,5.35
2019-03-18T00:38:35.138Z,5.70
2019-03-18T00:41:12.629Z,5.22
2019-03-18T00:43:50.024Z,5.45
2019-03-18T00:46:27.347Z,5.33
2019-03-18T00:49:05.035Z,5.58
2019-03-18T00:51:42.254Z,5.62
2019-03-18T00:54:19.972Z,5.17
2019-03-18T00:56:57.386Z,5.30
2019-03-18T00:59:34.594Z,5.72
2019-03-18T01:02:12.128Z,4.75
2019-03-18T01:04:49.523Z,5.55
2019-03-18T01:07:27.310Z,5.17
2019-03-18T01:10:06.728Z,5.45
2019-03-18T01:12:44.463Z,5.25
2019-03-18T01:15:27.901Z,4.87
2019-03-18T01:18:01.004Z,6.03
2019-03-18T01:20:38.291Z,5.47
2019-03-18T01:23:15.453Z,6.42
2019-03-18T01:25:53.026Z,6.40
2019-03-18T01:28:30.195Z,6.75
2019-03-18T01:31:07.571Z,6.58
2019-03-18T01:33:44.860Z,6.55
2019-03-18T01:36:22.185Z,6.80
2019-03-18T01:38:59.435Z,6.85
2019-03-18T01:41:36.777Z,7.10
2019-03-18T01:44:14.221Z,6.62
2019-03-18T01:46:53.217Z,7.35
2019-03-18T01:49:30.592Z,6.78
2019-03-18T01:52:08.242Z,7.62
2019-03-18T01:54:45.917Z,7.45
2019-03-18T01:57:23.279Z,7.42
2019-03-18T02:00:02.236Z,7.37
2019-03-18T02:02:39.605Z,7.30
2019-03-18T02:05:16.822Z,6.95
2019-03-18T02:07:53.899Z,7.35
2019-03-18T02:10:31.463Z,7.30
2019-03-18T02:13:08.867Z,7.83
2019-03-18T02:15:53.417Z,7.72
2019-03-18T02:18:26.091Z,6.65
2019-03-18T02:21:03.307Z,6.92
2019-03-18T02:23:41.010Z,6.67
2019-03-18T02:26:18.691Z,7.35
2019-03-18T02:28:56.031Z,7.03
2019-03-18T02:31:33.599Z,6.75
2019-03-18T02:34:10.912Z,6.80
2019-03-18T02:36:48.236Z,5.53
2019-03-18T02:39:25.516Z,5.72
2019-03-18T02:42:03.825Z,6.25
2019-03-18T02:44:41.192Z,5.42
2019-03-18T02:47:18.286Z,5.80
2019-03-18T02:49:55.548Z,6.17
2019-03-18T02:52:33.082Z,5.28
2019-03-18T02:55:10.956Z,6.28
2019-03-18T02:57:48.256Z,5.80
2019-03-18T03:00:25.866Z,5.20
2019-03-18T03:03:03.058Z,5.62
2019-03-18T03:05:40.928Z,5.78
2019-03-18T03:08:18.009Z,5.40
2019-03-18T03:10:55.663Z,5.55
2019-03-18T03:13:33.531Z,5.72
2019-03-18T03:16:25.600Z,5.35
2019-03-18T03:18:49.927Z,6.08
2019-03-18T03:21:27.965Z,5.85
2019-03-18T03:24:05.616Z,5.85
2019-03-18T03:26:42.774Z,5.30
2019-03-18T03:29:20.018Z,5.80
2019-03-18T03:31:57.354Z,5.17
2019-03-18T03:34:35.169Z,5.35
2019-03-18T03:37:12.787Z,4.72
2019-03-18T03:39:50.112Z,5.33
2019-03-18T03:42:27.655Z,5.00
2019-03-18T03:45:05.585Z,5.45
2019-03-18T03:47:42.783Z,5.08
2019-03-18T03:50:20.329Z,5.00
2019-03-18T03:52:57.406Z,4.97
2019-03-18T03:55:34.827Z,5.53
2019-03-18T03:58:12.052Z,4.87
2019-03-18T04:00:49.192Z,4.92
2019-03-18T04:03:37.582Z,4.97
2019-03-18T04:06:05.292Z,4.97
2019-03-18T04:08:42.833Z,4.83
2019-03-18T04:11:20.258Z,4.95
2019-03-18T04:13:57.446Z,4.72
2019-03-18T04:16:34.663Z,4.67
2019-03-18T04:19:11.893Z,5.25
2019-03-18T04:21:50.930Z,4.55
2019-03-18T04:24:27.986Z,4.30
2019-03-18T04:27:05.261Z,4.53
2019-03-18T04:29:42.672Z,4.25
2019-03-18T04:32:20.095Z,4.25
2019-03-18T04:34:57.258Z,4.12
2019-03-18T04:37:34.415Z,4.17
2019-03-18T04:40:11.547Z,4.35
2019-03-18T04:42:49.124Z,3.83
2019-03-18T04:45:26.450Z,3.72
2019-03-18T04:48:04.457Z,3.42
2019-03-18T04:50:42.412Z,3.65
2019-03-18T04:53:20.691Z,3.67
2019-03-18T04:55:57.890Z,3.52
2019-03-18T04:58:35.146Z,3.27
2019-03-18T05:01:12.408Z,3.75
2019-03-18T05:03:49.937Z,3.00
2019-03-18T05:06:27.349Z,2.62
2019-03-18T05:09:05.867Z,3.02
2019-03-18T05:11:43.357Z,2.72
2019-03-18T05:14:20.451Z,2.98
2019-03-18T05:16:57.572Z,3.08
2019-03-18T05:19:34.810Z,2.90
2019-03-18T05:22:12.021Z,3.27
2019-03-18T05:24:49.541Z,2.87
2019-03-18T05:27:26.837Z,2.85
2019-03-18T05:30:04.411Z,2.65
2019-03-18T05:32:41.659Z,3.20
2019-03-18T05:35:19.019Z,2.62
2019-03-18T05:37:56.254Z,2.62
2019-03-18T05:40:33.402Z,3.02
2019-03-18T05:43:10.585Z,2.90
2019-03-18T05:45:48.163Z,2.87
2019-03-18T05:48:25.655Z,2.72
2019-03-18T05:51:02.924Z,3.08
2019-03-18T05:53:40.142Z,2.10
2019-03-18T05:56:17.227Z,2.65
2019-03-18T05:58:54.470Z,2.80
2019-03-18T06:01:32.055Z,2.98
2019-03-18T06:04:09.360Z,3.02
2019-03-18T06:06:46.659Z,2.70
2019-03-18T06:09:23.998Z,2.65
2019-03-18T06:12:01.185Z,2.80
2019-03-18T06:14:38.485Z,2.50
2019-03-18T06:17:15.600Z,2.42
2019-03-18T06:19:53.112Z,2.67
2019-03-18T06:22:30.403Z,3.08
2019-03-18T06:25:07.904Z,2.87
2019-03-18T06:27:45.188Z,4.12
2019-03-18T06:30:22.456Z,3.33
2019-03-18T06:33:00.181Z,3.72
2019-03-18T06:35:37.460Z,3.75
2019-03-18T06:38:14.933Z,3.17
2019-03-18T06:40:52.280Z,3.10
2019-03-18T06:43:29.513Z,3.40
2019-03-18T06:46:06.836Z,3.15
2019-03-18T06:48:44.318Z,2.77
2019-03-18T06:51:22.436Z,3.00
2019-03-18T06:54:00.260Z,3.40
2019-03-18T06:56:37.474Z,2.98
2019-03-18T06:59:14.608Z,2.67
2019-03-18T07:01:51.986Z,2.95
2019-03-18T07:04:30.148Z,2.42
2019-03-18T07:07:08.616Z,2.30
2019-03-18T07:09:45.930Z,2.65
2019-03-18T07:12:23.656Z,2.42
2019-03-18T07:15:00.845Z,2.27
2019-03-18T07:17:38.205Z,2.60
2019-03-18T07:20:15.413Z,2.70
2019-03-18T07:22:52.777Z,2.77
2019-03-18T07:25:30.096Z,2.87
2019-03-18T07:28:07.259Z,2.98
2019-03-18T07:30:44.522Z,3.05
2019-03-18T07:33:25.603Z,3.37
2019-03-18T07:36:02.988Z,3.83
2019-03-18T07:38:40.179Z,3.65
2019-03-18T07:41:17.427Z,4.53
2019-03-18T07:43:54.554Z,4.12
2019-03-18T07:46:32.163Z,3.08
2019-03-18T07:49:10.039Z,3.52
2019-03-18T07:51:47.313Z,3.67
2019-03-18T07:54:32.621Z,3.45
2019-03-18T07:57:03.576Z,3.02
2019-03-18T07:59:40.941Z,3.22
2019-03-18T08:02:18.410Z,3.12
2019-03-18T08:04:55.789Z,3.00
2019-03-18T08:07:33.116Z,3.10
2019-03-18T08:10:10.626Z,3.40
2019-03-18T08:12:48.007Z,3.70
2019-03-18T08:15:25.263Z,3.40
2019-03-18T08:18:02.576Z,3.40
2019-03-18T08:20:39.853Z,3.87
2019-03-18T08:23:16.935Z,3.72
2019-03-18T08:25:54.154Z,3.80
2019-03-18T08:28:31.442Z,4.00
2019-03-18T08:31:08.873Z,3.92
2019-03-18T08:33:46.180Z,4.70
2019-03-18T08:36:23.836Z,4.47
2019-03-18T08:39:01.223Z,4.45
2019-03-18T08:41:38.626Z,3.95
2019-03-18T08:44:15.698Z,4.25
2019-03-18T08:46:53.021Z,4.30
2019-03-18T08:49:30.357Z,4.87
2019-03-18T08:52:08.342Z,3.95
2019-03-18T08:54:46.038Z,4.10
2019-03-18T08:57:23.711Z,4.28
2019-03-18T09:00:01.043Z,4.15
2019-03-18T09:02:38.333Z,4.20
2019-03-18T09:05:15.504Z,3.80
2019-03-18T09:07:52.865Z,4.00
2019-03-18T09:10:30.185Z,3.60
2019-03-18T09:13:07.843Z,2.98
2019-03-18T09:15:45.245Z,3.55
2019-03-18T09:18:22.883Z,4.12
2019-03-18T09:21:00.201Z,2.98
2019-03-18T09:23:37.429Z,3.02
2019-03-18T09:26:14.593Z,3.17
2019-03-18T09:28:52.148Z,2.87
2019-03-18T09:31:30.108Z,2.98
2019-03-18T09:34:08.446Z,3.27
2019-03-18T09:36:45.661Z,3.17
2019-03-18T09:39:23.020Z,3.55
2019-03-18T09:42:00.435Z,3.10
2019-03-18T09:44:37.926Z,3.80
2019-03-18T09:47:15.059Z,3.00
2019-03-18T09:49:52.826Z,3.08
2019-03-18T09:52:30.389Z,3.00
2019-03-18T09:55:08.156Z,3.33
2019-03-18T09:57:45.390Z,3.00
2019-03-18T10:00:22.848Z,2.80
2019-03-18T10:03:00.574Z,2.98
2019-03-18T10:05:37.867Z,2.87
2019-03-18T10:08:15.094Z,3.27
2019-03-18T10:10:52.412Z,3.42
2019-03-18T10:13:30.018Z,3.25
2019-03-18T10:16:07.340Z,3.10
2019-03-18T10:18:45.474Z,3.40
2019-03-18T10:21:23.126Z,2.98
2019-03-18T10:24:00.801Z,3.02
2019-03-18T10:26:38.116Z,2.67
2019-03-18T10:29:15.770Z,3.10
2019-03-18T10:31:53.040Z,3.08
2019-03-18T10:34:30.421Z,3.83
2019-03-18T10:37:07.857Z,3.87
2019-03-18T10:39:45.227Z,3.65
2019-03-18T10:42:22.377Z,3.30
2019-03-18T10:44:59.766Z,3.45
2019-03-18T10:47:37.079Z,2.98
2019-03-18T10:50:15.407Z,2.85
2019-03-18T10:52:52.627Z,3.08
2019-03-18T10:55:30.440Z,3.00
2019-03-18T10:58:07.695Z,3.22
2019-03-18T11:00:45.165Z,2.70
2019-03-18T11:03:22.782Z,3.15
2019-03-18T11:06:01.095Z,2.75
2019-03-18T11:08:39.303Z,2.65
2019-03-18T11:11:16.834Z,2.83
2019-03-18T11:13:54.149Z,2.75
2019-03-18T11:16:31.603Z,3.22
2019-03-18T11:19:09.391Z,3.62
2019-03-18T11:21:47.134Z,3.52
2019-03-18T11:24:24.442Z,2.92
2019-03-18T11:27:01.804Z,3.37
2019-03-18T11:29:39.120Z,3.00
2019-03-18T11:32:16.663Z,2.60
2019-03-18T11:34:54.023Z,3.17
2019-03-18T11:37:31.890Z,2.70
2019-03-18T11:40:10.053Z,2.67
2019-03-18T11:42:47.676Z,2.30
2019-03-18T11:45:25.053Z,2.60
2019-03-18T11:48:03.308Z,3.17
2019-03-18T11:50:41.501Z,2.40
2019-03-18T11:53:18.894Z,3.05
2019-03-18T11:55:56.493Z,3.00
2019-03-18T11:58:34.207Z,2.45
2019-03-18T12:01:11.566Z,2.20
2019-03-18T12:03:48.876Z,2.40
2019-03-18T12:06:26.206Z,2.45
2019-03-18T12:09:04.014Z,2.60
2019-03-18T12:11:41.226Z,3.20
2019-03-18T12:14:18.406Z,2.58
2019-03-18T12:16:55.629Z,2.55
2019-03-18T12:19:33.018Z,3.35
2019-03-18T12:22:10.718Z,3.30
2019-03-18T12:24:48.238Z,3.10
2019-03-18T12:27:26.286Z,3.17
2019-03-18T12:30:03.654Z,4.12
2019-03-18T12:32:41.287Z,3.08
2019-03-18T12:35:18.417Z,2.45
2019-03-18T12:37:55.602Z,3.35
2019-03-18T12:40:33.281Z,3.05
2019-03-18T12:43:10.705Z,2.67
2019-03-18T12:45:48.936Z,3.27
2019-03-18T12:48:26.257Z,2.87
2019-03-18T12:51:03.574Z,2.58
2019-03-18T12:53:40.937Z,3.08
2019-03-18T12:56:18.164Z,2.42
2019-03-18T12:58:55.821Z,2.35
2019-03-18T13:01:33.533Z,2.33
2019-03-18T13:04:10.872Z,2.40
2019-03-18T13:06:48.198Z,2.77
2019-03-18T13:09:25.930Z,2.22
2019-03-18T13:12:03.629Z,2.22
2019-03-18T13:14:42.432Z,2.37
2019-03-18T13:17:20.037Z,3.02
2019-03-18T13:19:57.287Z,2.90
2019-03-18T13:22:35.009Z,2.37
2019-03-18T13:25:12.594Z,2.27
2019-03-18T13:27:50.406Z,2.80
2019-03-18T13:30:27.522Z,2.47
2019-03-18T13:33:04.815Z,2.80
2019-03-18T13:35:43.272Z,2.83
2019-03-18T13:38:20.419Z,1.85
2019-03-18T13:40:57.802Z,2.02
2019-03-18T13:43:35.097Z,2.20
2019-03-18T13:46:12.320Z,1.90
2019-03-18T13:48:49.603Z,2.45
2019-03-18T13:51:26.916Z,2.17
2019-03-18T13:54:04.218Z,3.37
2019-03-18T13:57:06.759Z,1.92
2019-03-18T14:00:17.495Z,2.47
2019-03-18T14:03:12.259Z,2.25
2019-03-18T14:05:49.516Z,2.70
2019-03-18T14:08:27.855Z,2.15
2019-03-18T14:11:05.160Z,2.70
2019-03-18T14:13:42.485Z,2.72
2019-03-18T14:16:19.750Z,2.47
2019-03-18T14:18:56.907Z,2.02
2019-03-18T14:21:34.075Z,2.58
2019-03-18T14:24:11.404Z,2.22
2019-03-18T14:26:48.735Z,2.40
2019-03-18T14:29:26.032Z,2.30
2019-03-18T14:32:03.226Z,3.42
2019-03-18T14:34:40.802Z,3.00
2019-03-18T14:37:18.009Z,2.30
2019-03-18T14:39:55.233Z,3.27
2019-03-18T14:42:32.539Z,2.85
2019-03-18T14:45:12.380Z,2.92
2019-03-18T14:47:49.679Z,2.80
2019-03-18T14:50:26.797Z,2.35
2019-03-18T14:53:03.962Z,3.00
2019-03-18T14:55:41.266Z,2.50
2019-03-18T14:58:18.600Z,3.85
2019-03-18T15:00:56.025Z,1.90
2019-03-18T15:03:33.399Z,2.47
2019-03-18T15:06:10.694Z,2.87
2019-03-18T15:08:48.013Z,2.98
2019-03-18T15:11:25.194Z,2.77
2019-03-18T15:14:02.520Z,2.50
2019-03-18T15:16:39.780Z,3.25
2019-03-18T15:19:17.046Z,2.58
2019-03-18T15:21:58.716Z,2.27
2019-03-18T15:24:33.385Z,2.33
2019-03-18T15:27:11.358Z,2.70
2019-03-18T15:29:48.651Z,2.83
2019-03-18T15:32:25.756Z,2.58
2019-03-18T15:35:03.088Z,3.45
2019-03-18T15:37:40.233Z,2.80
2019-03-18T15:40:18.413Z,3.27
2019-03-18T15:42:55.705Z,3.40
2019-03-18T15:45:33.143Z,8.10
2019-03-18T15:48:10.456Z,3.70
2019-03-18T15:50:47.803Z,4.28
2019-03-18T15:53:24.891Z,3.95
2019-03-18T15:56:02.139Z,2.87
2019-03-18T15:58:39.423Z,3.45
2019-03-18T16:01:16.656Z,3.27
2019-03-18T16:03:53.930Z,3.47
2019-03-18T16:06:31.229Z,3.42
2019-03-18T16:09:09.143Z,3.47
2019-03-18T16:11:46.342Z,3.45
2019-03-18T16:14:23.998Z,3.92
2019-03-18T16:17:20.246Z,3.27
2019-03-18T16:20:30.640Z,3.17
2019-03-18T16:23:17.169Z,3.02
2019-03-18T16:25:54.771Z,3.37
2019-03-18T16:28:32.665Z,3.72
2019-03-18T16:31:10.595Z,3.33
2019-03-18T16:33:47.921Z,2.80
2019-03-18T16:36:25.086Z,3.42
2019-03-18T16:39:03.158Z,2.98
2019-03-18T16:41:40.517Z,3.50
2019-03-18T16:44:18.274Z,3.15
2019-03-18T16:46:55.486Z,3.10
2019-03-18T16:49:33.154Z,2.77
2019-03-18T16:52:10.917Z,3.20
2019-03-18T16:54:48.209Z,3.27
2019-03-18T16:57:25.666Z,2.58
2019-03-18T17:00:03.192Z,2.90
2019-03-18T17:02:41.807Z,1.90
2019-03-18T17:05:19.123Z,2.47
2019-03-18T17:07:56.499Z,2.15
2019-03-18T17:10:33.584Z,2.50
2019-03-18T17:13:10.840Z,2.87
2019-03-18T17:15:48.664Z,2.40
2019-03-18T17:18:26.062Z,2.55
2019-03-18T17:21:03.663Z,4.12
2019-03-18T17:23:41.009Z,2.15
2019-03-18T17:26:18.236Z,2.40
2019-03-18T17:28:55.496Z,2.02
2019-03-18T17:31:33.000Z,3.00
2019-03-18T17:34:10.385Z,3.17
2019-03-18T17:36:47.652Z,2.50
2019-03-18T17:39:25.125Z,3.25
2019-03-18T17:42:02.339Z,5.70
2019-03-18T17:44:39.805Z,3.77
2019-03-18T17:47:16.935Z,2.50
2019-03-18T17:49:54.270Z,2.98
2019-03-18T17:52:32.477Z,2.85
2019-03-18T17:55:10.766Z,2.17
2019-03-18T17:57:48.165Z,2.30
2019-03-18T18:00:32.629Z,2.33
2019-03-18T18:03:09.697Z,2.58
2019-03-18T18:05:47.478Z,2.58
2019-03-18T18:08:24.635Z,3.65
2019-03-18T18:11:01.948Z,2.25
2019-03-18T18:13:39.465Z,2.08
2019-03-18T18:16:16.785Z,2.22
2019-03-18T18:18:53.997Z,1.82
2019-03-18T18:21:31.256Z,2.33
2019-03-18T18:24:08.414Z,1.75
2019-03-18T18:26:46.135Z,1.95
2019-03-18T18:29:24.233Z,2.25
2019-03-18T18:32:01.582Z,3.25
2019-03-18T18:34:38.985Z,2.17
2019-03-18T18:37:19.081Z,2.45
2019-03-18T18:39:56.656Z,1.95
2019-03-18T18:42:34.878Z,2.20
2019-03-18T18:45:12.991Z,2.40
2019-03-18T18:47:50.096Z,1.95
2019-03-18T18:50:27.392Z,1.77
2019-03-18T18:53:05.541Z,1.90
2019-03-18T18:55:42.954Z,1.95
2019-03-18T18:58:20.368Z,1.85
2019-03-18T19:00:58.814Z,1.75
2019-03-18T19:03:36.077Z,2.50
2019-03-18T19:06:13.222Z,2.10
2019-03-18T19:08:51.089Z,3.08
2019-03-18T19:11:28.280Z,2.95
2019-03-18T19:14:05.879Z,2.50
2019-03-18T19:16:44.039Z,2.67
2019-03-18T19:19:21.672Z,2.45
2019-03-18T19:22:00.220Z,2.55
2019-03-18T19:24:37.542Z,2.90
2019-03-18T19:27:16.940Z,2.50
2019-03-18T19:29:54.198Z,3.05
2019-03-18T19:32:31.760Z,2.67
2019-03-18T19:35:09.831Z,3.05
2019-03-18T19:37:47.302Z,3.00
2019-03-18T19:40:24.526Z,3.12
2019-03-18T19:43:01.808Z,2.83
2019-03-18T19:45:39.241Z,3.02
2019-03-18T19:48:17.575Z,2.92
2019-03-18T19:50:54.871Z,2.72
2019-03-18T19:53:32.009Z,3.50
2019-03-18T19:56:10.041Z,2.58
2019-03-18T19:58:47.341Z,3.30
2019-03-18T20:01:25.178Z,2.98
2019-03-18T20:04:02.556Z,2.42
2019-03-18T20:06:39.835Z,2.47
2019-03-18T20:09:17.366Z,2.62
2019-03-18T20:11:56.742Z,2.85
2019-03-18T20:14:41.566Z,2.33
2019-03-18T20:17:19.605Z,4.58
2019-03-18T20:19:56.979Z,4.40
2019-03-18T20:22:41.213Z,2.90
2019-03-18T20:25:18.541Z,3.02
2019-03-18T20:27:55.985Z,3.12
2019-03-18T20:30:34.872Z,2.95
2019-03-18T20:33:17.710Z,2.98
2019-03-18T20:36:02.231Z,3.58
2019-03-18T20:38:39.359Z,2.70
2019-03-18T20:41:24.290Z,3.20
2019-03-18T20:44:02.153Z,3.02
2019-03-18T20:46:43.699Z,2.65
2019-03-18T20:49:23.345Z,3.45
2019-03-18T20:52:04.288Z,2.98
2019-03-18T20:54:46.913Z,3.33
2019-03-18T20:57:24.838Z,3.22
2019-03-18T21:00:03.599Z,2.98
2019-03-18T21:02:40.972Z,4.55
2019-03-18T21:05:18.665Z,5.05
2019-03-18T21:07:56.177Z,4.72
2019-03-18T21:10:34.346Z,3.92
2019-03-18T21:13:12.572Z,3.77
2019-03-18T21:15:51.260Z,3.52
2019-03-18T21:18:29.813Z,2.85
2019-03-18T21:21:08.796Z,3.50
2019-03-18T21:23:47.662Z,3.15
2019-03-18T21:26:25.594Z,3.70
2019-03-18T21:29:02.751Z,3.80
2019-03-18T21:31:40.069Z,4.28
2019-03-18T21:34:17.820Z,3.98
2019-03-18T21:36:55.544Z,3.62
2019-03-18T21:39:33.148Z,3.60
2019-03-18T21:42:10.808Z,3.33
2019-03-18T21:44:48.221Z,3.20
2019-03-18T21:47:25.476Z,2.90
2019-03-18T21:50:02.895Z,3.17
2019-03-18T21:52:40.435Z,2.92
2019-03-18T21:55:18.072Z,2.95
2019-03-18T21:57:55.752Z,3.25
2019-03-18T22:00:33.300Z,2.98
2019-03-18T22:03:11.074Z,2.72
2019-03-18T22:05:48.807Z,2.80
2019-03-18T22:08:27.733Z,2.98
2019-03-18T22:11:06.363Z,3.20
2019-03-18T22:13:44.151Z,3.00
2019-03-18T22:16:21.481Z,3.72
2019-03-18T22:18:58.909Z,3.15
2019-03-18T22:21:36.470Z,3.70
2019-03-18T22:24:13.918Z,2.95
2019-03-18T22:26:51.509Z,2.70
2019-03-18T22:29:30.058Z,3.62
2019-03-18T22:32:07.312Z,3.77
2019-03-18T22:34:44.643Z,3.40
2019-03-18T22:37:21.943Z,3.00
2019-03-18T22:39:59.233Z,3.22
2019-03-18T22:42:36.538Z,2.92
2019-03-18T22:45:14.108Z,3.40
2019-03-18T22:47:51.715Z,3.50
2019-03-18T22:50:28.854Z,3.85
2019-03-18T22:53:06.220Z,3.27
2019-03-18T22:55:43.877Z,4.12
2019-03-18T22:58:21.220Z,3.62
2019-03-18T23:01:13.866Z,2.77
2019-03-18T23:03:52.200Z,2.83
2019-03-18T23:06:29.430Z,3.02
2019-03-18T23:09:07.680Z,3.45
2019-03-18T23:11:44.932Z,3.65
2019-03-18T23:14:22.412Z,3.15
2019-03-18T23:16:59.662Z,3.15
2019-03-18T23:19:36.868Z,4.00
2019-03-18T23:22:14.015Z,3.40
2019-03-18T23:24:51.557Z,3.33
2019-03-18T23:27:28.823Z,3.85
2019-03-18T23:30:07.306Z,3.70
2019-03-18T23:32:45.135Z,3.37
2019-03-18T23:35:22.568Z,3.37
2019-03-18T23:38:00.475Z,3.80
2019-03-18T23:40:38.748Z,3.77
2019-03-18T23:43:16.012Z,2.67
2019-03-18T23:45:53.386Z,3.62
2019-03-18T23:48:31.375Z,3.47
2019-03-18T23:51:08.957Z,3.05
2019-03-18T23:53:46.320Z,2.80
2019-03-18T23:56:23.527Z,3.42
2019-03-18T23:59:00.821Z,3.12
